Time;durP1;ratioP1;P1;durP2;ratioP2;P2;SDS_P1;SDS_P2;PMS_P1;PMS_P2;Temp;Humidity;BMP_temperature;BMP_pressure;BME280_temperature;BME280_humidity;BME280_pressure;Samples;Min_cycle;Max_cycle;Signal;HPM_P1;HPM_P2
2023/10/26 00:03:15;;;;;;;0.20;0.20;;;;;;;;;;20631140;23;20220;-69
2023/10/26 00:13:17;;;;;;;1.30;0.30;;;;;;;;;;20600751;28;20212;-69
2023/10/26 00:23:19;;;;;;;1.63;0.30;;;;;;;;;;20606730;28;20286;-68
2023/10/26 00:33:22;;;;;;;0.20;0.20;;;;;;;;;;20590863;28;20209;-69
2023/10/26 00:43:25;;;;;;;0.30;0.30;;;;;;;;;;20594748;28;20224;-69
2023/10/26 00:53:27;;;;;;;0.30;0.30;;;;;;;;;;20634005;28;20252;-68
2023/10/26 01:03:30;;;;;;;0.20;0.20;;;;;;;;;;20601325;28;20224;-69
2023/10/26 01:13:33;;;;;;;0.30;0.30;;;;;;;;;;20605421;28;20667;-69
2023/10/26 01:23:35;;;;;;;0.20;0.20;;;;;;;;;;20603882;28;20232;-69
2023/10/26 01:33:37;;;;;;;0.20;0.20;;;;;;;;;;20618098;28;20243;-69
2023/10/26 01:43:39;;;;;;;0.30;0.20;;;;;;;;;;20614962;28;20249;-69
2023/10/26 01:53:42;;;;;;;0.10;0.10;;;;;;;;;;20634004;28;20223;-69
2023/10/26 02:03:45;;;;;;;0.20;0.20;;;;;;;;;;20592604;28;20282;-69
2023/10/26 02:13:47;;;;;;;0.83;0.37;;;;;;;;;;20584173;28;20221;-69
2023/10/26 02:23:49;;;;;;;0.17;0.17;;;;;;;;;;20593487;28;20240;-68
2023/10/26 02:33:50;;;;;;;0.10;0.10;;;;;;;;;;20571908;28;20585;-69
2023/10/26 02:43:52;;;;;;;0.20;0.20;;;;;;;;;;20604186;28;20233;-70
2023/10/26 02:53:54;;;;;;;0.30;0.30;;;;;;;;;;20607457;28;20650;-70
2023/10/26 03:03:56;;;;;;;0.30;0.30;;;;;;;;;;20630184;28;20251;-68
2023/10/26 03:13:58;;;;;;;0.20;0.20;;;;;;;;;;20598388;28;20355;-69
2023/10/26 03:24:00;;;;;;;0.20;0.20;;;;;;;;;;20599887;28;20231;-69
2023/10/26 03:34:03;;;;;;;0.47;0.20;;;;;;;;;;20611816;28;20293;-69
2023/10/26 03:44:06;;;;;;;0.47;0.43;;;;;;;;;;20623182;28;20283;-70
2023/10/26 03:54:07;;;;;;;0.57;0.37;;;;;;;;;;20573738;28;20258;-69
2023/10/26 04:04:09;;;;;;;0.43;0.33;;;;;;;;;;20581165;28;20855;-70
2023/10/26 04:14:12;;;;;;;0.37;0.30;;;;;;;;;;20618247;28;20216;-69
2023/10/26 04:24:14;;;;;;;0.37;0.37;;;;;;;;;;20605131;28;20263;-70
2023/10/26 04:34:15;;;;;;;0.30;0.30;;;;;;;;;;20580293;28;20566;-70
2023/10/26 04:44:18;;;;;;;0.90;0.50;;;;;;;;;;20524629;23;20244;-88
2023/10/26 04:54:20;;;;;;;2.80;1.37;;;;;;;;;;20521261;28;20557;-89
2023/10/26 05:04:22;;;;;;;0.57;0.43;;;;;;;;;;20545742;28;20276;-88
2023/10/26 05:14:23;;;;;;;0.50;0.40;;;;;;;;;;20507246;28;20225;-88
2023/10/26 05:24:25;;;;;;;1.53;0.63;;;;;;;;;;20513340;28;20224;-89
2023/10/26 05:34:27;;;;;;;0.50;0.40;;;;;;;;;;20499454;28;20277;-88
2023/10/26 05:44:28;;;;;;;1.70;1.10;;;;;;;;;;20518120;28;20233;-88
2023/10/26 05:54:30;;;;;;;1.30;0.90;;;;;;;;;;20533036;28;20551;-88
2023/10/26 06:04:32;;;;;;;1.67;0.80;;;;;;;;;;20529769;28;20233;-87
2023/10/26 06:14:34;;;;;;;2.07;0.60;;;;;;;;;;20501199;28;20221;-88
2023/10/26 06:24:35;;;;;;;1.40;0.90;;;;;;;;;;20534001;28;20228;-87
2023/10/26 06:34:37;;;;;;;1.30;0.73;;;;;;;;;;20529326;28;20564;-87
2023/10/26 06:44:40;;;;;;;1.50;1.00;;;;;;;;;;20478698;28;20241;-88
2023/10/26 06:54:41;;;;;;;1.50;0.90;;;;;;;;;;20533416;28;20217;-88
2023/10/26 07:04:43;;;;;;;2.43;1.50;;;;;;;;;;20515535;28;20291;-88
2023/10/26 07:14:45;;;;;;;3.60;1.80;;;;;;;;;;20603996;23;20253;-70
2023/10/26 07:24:46;;;;;;;3.87;1.83;;;;;;;;;;20703002;28;20230;-72
2023/10/26 07:34:48;;;;;;;2.10;1.20;;;;;;;;;;20718393;28;20219;-72
2023/10/26 07:44:54;;;;;;;1.40;0.97;;;;;;;;;;20733518;28;20239;-71
2023/10/26 07:54:56;;;;;;;0.63;0.60;;;;;;;;;;20724531;28;20301;-71
2023/10/26 08:04:59;;;;;;;0.80;0.60;;;;;;;;;;20734573;28;20242;-71
2023/10/26 08:15:02;;;;;;;1.53;0.80;;;12.60;99.90;;;;;;20700203;28;20579;-72
2023/10/26 08:25:04;;;;;;;0.30;0.30;;;;;;;;;;20684551;28;20273;-72
2023/10/26 08:35:07;;;;;;;0.87;0.40;;;;;;;;;;20746069;28;20370;-71
2023/10/26 08:45:19;;;;;;;0.60;0.40;;;;;;;;;;20707516;28;20226;-71
2023/10/26 08:55:21;;;;;;;0.93;0.40;;;;;;;;;;20754534;28;20207;-72
2023/10/26 09:05:23;;;;;;;0.40;0.40;;;;;;;;;;20750334;28;20959;-71
2023/10/26 09:15:25;;;;;;;1.23;0.50;;;;;;;;;;20729410;28;20305;-71
2023/10/26 09:25:27;;;;;;;0.87;0.70;;;;;;;;;;20729513;28;20658;-70
2023/10/26 09:35:33;;;;;;;0.40;0.40;;;;;;;;;;20727526;28;20269;-70
2023/10/26 09:45:35;;;;;;;0.80;0.50;;;12.20;99.90;;;;;;20732858;28;20285;-70
2023/10/26 09:55:37;;;;;;;0.80;0.50;;;;;;;;;;20718153;28;20349;-70
2023/10/26 10:05:41;;;;;;;1.37;0.80;;;;;;;;;;20724162;28;20662;-70
2023/10/26 10:15:43;;;;;;;0.60;0.40;;;;;;;;;;20714995;28;20328;-70
2023/10/26 10:25:51;;;;;;;1.10;0.60;;;;;;;;;;20697697;28;20250;-70
2023/10/26 10:36:06;;;;;;;1.07;0.47;;;12.40;99.90;;;;;;20725169;28;20281;-69
2023/10/26 10:46:18;;;;;;;1.27;0.70;;;;;;;;;;20715004;28;20214;-70
2023/10/26 10:56:20;;;;;;;0.70;0.50;;;;;;;;;;20714276;28;20219;-69
2023/10/26 11:06:23;;;;;;;4.30;0.90;;;;;;;;;;20724302;28;20799;-69
2023/10/26 11:16:25;;;;;;;0.50;0.40;;;12.40;99.90;;;;;;20697552;28;20223;-70
2023/10/26 11:26:27;;;;;;;1.53;0.50;;;;;;;;;;20710651;28;20223;-69
2023/10/26 11:36:29;;;;;;;0.70;0.53;;;;;;;;;;20725913;28;20214;-70
2023/10/26 11:46:35;;;;;;;0.70;0.50;;;12.20;99.90;;;;;;20713907;28;20277;-70
2023/10/26 11:56:40;;;;;;;0.97;0.63;;;;;;;;;;20708939;28;20273;-71
2023/10/26 12:06:42;;;;;;;0.70;0.50;;;;;;;;;;20699514;22;20242;-68
2023/10/26 12:16:44;;;;;;;1.37;0.50;;;;;;;;;;20501173;28;20692;-68
2023/10/26 12:26:46;;;;;;;0.93;0.57;;;;;;;;;;20468301;28;20278;-68
2023/10/26 12:36:47;;;;;;;2.40;0.57;;;;;;;;;;20452201;28;20217;-68
2023/10/26 12:46:50;;;;;;;1.40;0.50;;;13.00;99.90;;;;;;20468368;28;20282;-69
2023/10/26 12:56:52;;;;;;;0.57;0.43;;;;;;;;;;20451618;28;20228;-69
2023/10/26 13:06:53;;;;;;;1.00;0.47;;;;;;;;;;20443503;28;20228;-69
2023/10/26 13:16:55;;;;;;;1.50;0.70;;;;;;;;;;20462394;28;20768;-67
2023/10/26 13:26:58;;;;;;;1.67;0.50;;;;;;;;;;20480049;28;20221;-67
2023/10/26 13:37:00;;;;;;;2.00;0.70;;;;;;;;;;20480561;28;20298;-68
2023/10/26 13:47:02;;;;;;;2.50;1.00;;;;;;;;;;20478898;28;20229;-68
2023/10/26 13:57:05;;;;;;;2.50;1.30;;;;;;;;;;20475703;28;20253;-68
2023/10/26 14:07:09;;;;;;;0.93;0.60;;;;;;;;;;20452695;28;20303;-67
2023/10/26 14:17:10;;;;;;;1.23;0.80;;;;;;;;;;20446903;28;20642;-68
2023/10/26 14:27:12;;;;;;;0.87;0.67;;;;;;;;;;20451008;28;20770;-67
2023/10/26 14:37:14;;;;;;;1.43;0.63;;;;;;;;;;20460061;28;20229;-67
2023/10/26 14:47:16;;;;;;;0.90;0.50;;;;;;;;;;20451782;28;20735;-68
2023/10/26 14:57:18;;;;;;;1.13;0.60;;;;;;;;;;20468658;28;20261;-68
2023/10/26 15:07:20;;;;;;;1.23;0.60;;;;;;;;;;20466233;28;20716;-68
2023/10/26 15:17:24;;;;;;;1.40;0.70;;;;;;;;;;20482499;28;20330;-69
2023/10/26 15:27:26;;;;;;;2.17;0.80;;;;;;;;;;20438573;28;20225;-69
2023/10/26 15:37:28;;;;;;;3.03;0.93;;;;;;;;;;20446077;28;20268;-69
2023/10/26 15:47:30;;;;;;;2.53;0.73;;;;;;;;;;20463604;28;20256;-68
2023/10/26 15:57:32;;;;;;;1.47;0.50;;;;;;;;;;20495398;28;20252;-67
2023/10/26 16:07:36;;;;;;;3.30;0.50;;;;;;;;;;20458274;28;20229;-68
2023/10/26 16:17:39;;;;;;;2.37;0.83;;;;;;;;;;20440763;28;20770;-68
2023/10/26 16:27:41;;;;;;;1.03;0.50;;;;;;;;;;20375610;28;20209;-68
2023/10/26 16:37:43;;;;;;;1.60;0.50;;;;;;;;;;20392121;28;20252;-68
2023/10/26 16:47:48;;;;;;;2.03;0.60;;;13.10;99.90;;;;;;20461042;28;20248;-68
2023/10/26 16:57:50;;;;;;;2.03;0.70;;;;;;;;;;20475149;28;20260;-68
2023/10/26 17:07:52;;;;;;;3.00;0.97;;;;;;;;;;20472891;28;20228;-70
2023/10/26 17:17:54;;;;;;;2.67;0.70;;;;;;;;;;20492172;28;20229;-68
2023/10/26 17:27:55;;;;;;;1.90;0.63;;;;;;;;;;20440680;28;20273;-70
2023/10/26 17:37:57;;;;;;;1.57;0.77;;;;;;;;;;20474224;28;20228;-68
2023/10/26 17:48:00;;;;;;;2.10;0.80;;;;;;;;;;20454236;28;20218;-69
2023/10/26 17:58:02;;;;;;;2.53;0.67;;;;;;;;;;20497974;28;20237;-69
2023/10/26 18:08:04;;;;;;;1.77;0.70;;;13.00;99.90;;;;;;20376927;28;20253;-69
2023/10/26 18:18:06;;;;;;;0.93;0.60;;;;;;;;;;20456379;28;20283;-69
2023/10/26 18:38:25;;;;;;;2.43;1.17;;;;;;;;;;20539369;28;20287;-70
2023/10/26 18:48:31;;;;;;;2.23;1.07;;;;;;;;;;20523643;28;20229;-69
2023/10/26 18:58:33;;;;;;;3.33;1.03;;;;;;;;;;20519798;28;20221;-70
2023/10/26 19:08:36;;;;;;;2.33;1.03;;;;;;;;;;20529985;28;20283;-68
2023/10/26 19:18:38;;;;;;;3.07;1.20;;;;;;;;;;20511463;28;20605;-68
2023/10/26 19:28:40;;;;;;;3.50;0.80;;;;;;;;;;20536537;28;20229;-68
2023/10/26 19:38:42;;;;;;;2.73;0.70;;;;;;;;;;20526279;28;20232;-68
2023/10/26 19:48:44;;;;;;;2.30;0.83;;;;;;;;;;20507671;28;20248;-68
2023/10/26 19:58:47;;;;;;;2.07;0.97;;;;;;;;;;20551928;23;20237;-89
2023/10/26 20:08:48;;;;;;;2.47;0.80;;;;;;;;;;20529606;28;20216;-88
2023/10/26 20:18:50;;;;;;;1.63;0.97;;;;;;;;;;20518701;28;20685;-89
2023/10/26 20:28:52;;;;;;;2.60;0.83;;;;;;;;;;20506891;28;20216;-87
2023/10/26 20:38:54;;;;;;;1.63;0.73;;;;;;;;;;20607276;28;20229;-88
2023/10/26 20:48:56;;;;;;;3.73;1.10;;;;;;;;;;20533815;28;20221;-89
2023/10/26 20:59:02;;;;;;;1.47;1.10;;;;;;;;;;20533984;28;20240;-89
2023/10/26 21:09:04;;;;;;;6.17;3.57;;;;;;;;;;20531986;28;20276;-88
2023/10/26 21:19:07;;;;;;;3.47;1.30;;;;;;;;;;20527631;28;20687;-89
2023/10/26 21:29:09;;;;;;;3.27;1.00;;;;;;;;;;20557426;28;20228;-88
2023/10/26 21:39:11;;;;;;;2.43;1.00;;;;;;;;;;20544321;28;20228;-89
2023/10/26 21:49:13;;;;;;;1.90;0.70;;;;;;;;;;20535171;28;20271;-88
2023/10/26 21:59:18;;;;;;;7.17;1.70;;;;;;;;;;20549550;28;20283;-90
2023/10/26 22:09:23;;;;;;;2.30;0.80;;;;;;;;;;20560406;28;20356;-90
2023/10/26 22:19:25;;;;;;;2.80;0.63;;;;;;;;;;20555911;28;20303;-88
2023/10/26 22:29:27;;;;;;;2.60;0.97;;;;;;;;;;20546865;28;20611;-90
2023/10/26 22:39:28;;;;;;;5.47;1.03;;;;;;;;;;20538127;28;20220;-88
2023/10/26 22:49:31;;;;;;;1.90;0.73;;;;;;;;;;20569138;28;20263;-88
2023/10/26 22:59:32;;;;;;;4.20;0.90;;;;;;;;;;20538444;28;20228;-89
2023/10/26 23:09:34;;;;;;;2.73;0.83;;;;;;;;;;20566269;28;20278;-88
2023/10/26 23:19:36;;;;;;;5.07;1.20;;;;;;;;;;20524450;28;20290;-87
2023/10/26 23:29:38;;;;;;;2.20;0.90;;;;;;;;;;20572863;28;20225;-89
2023/10/26 23:39:39;;;;;;;5.20;1.10;;;;;;;;;;20530315;28;20550;-89
2023/10/26 23:49:41;;;;;;;4.67;1.30;;;;;;;;;;20579500;28;20192;-87
2023/10/26 23:59:43;;;;;;;3.07;0.80;;;;;;;;;;20542431;28;20291;-89
